createdAt,value
2022-11-29T00:00:24.818Z,95.47
2022-11-29T00:02:56.222Z,96.36
2022-11-29T00:05:27.117Z,96.75
2022-11-29T00:08:00.211Z,98.50
2022-11-29T00:10:30.903Z,91.83
2022-11-29T00:13:01.489Z,87.70
2022-11-29T00:15:32.124Z,89.96
2022-11-29T00:18:02.596Z,90.93
2022-11-29T00:20:33.568Z,92.46
2022-11-29T00:23:06.787Z,93.62
2022-11-29T00:25:37.481Z,94.95
2022-11-29T00:28:08.261Z,95.96
2022-11-29T00:30:38.915Z,98.20
2022-11-29T00:33:09.584Z,100.00
2022-11-29T00:35:40.142Z,100.00
2022-11-29T00:38:13.256Z,100.00
2022-11-29T00:40:43.870Z,100.00
2022-11-29T00:43:14.460Z,100.00
2022-11-29T00:45:45.055Z,100.00
2022-11-29T00:48:15.597Z,100.00
2022-11-29T00:50:46.112Z,100.00
2022-11-29T00:53:19.217Z,99.15
2022-11-29T00:55:51.992Z,98.03
2022-11-29T00:58:23.666Z,97.82
2022-11-29T01:00:56.202Z,97.36
2022-11-29T01:03:27.573Z,97.27
2022-11-29T01:06:04.090Z,96.83
2022-11-29T01:08:37.825Z,96.50
2022-11-29T01:11:10.588Z,96.40
2022-11-29T01:13:41.434Z,96.06
2022-11-29T01:16:12.868Z,95.70
2022-11-29T01:18:43.991Z,95.34
2022-11-29T01:21:16.582Z,95.48
2022-11-29T01:23:51.023Z,95.25
2022-11-29T01:26:24.130Z,95.06
2022-11-29T01:28:56.575Z,94.59
2022-11-29T01:31:29.057Z,94.56
2022-11-29T01:34:01.519Z,94.21
2022-11-29T01:36:32.610Z,94.05
2022-11-29T01:39:07.671Z,93.95
2022-11-29T01:41:40.165Z,93.89
2022-11-29T01:44:45.908Z,93.79
2022-11-29T01:47:16.774Z,93.30
2022-11-29T01:49:50.655Z,92.96
2022-11-29T01:52:25.523Z,92.72
2022-11-29T01:55:01.557Z,92.90
2022-11-29T01:57:38.461Z,92.37
2022-11-29T02:00:12.911Z,92.76
2022-11-29T02:02:46.618Z,92.57
2022-11-29T02:05:19.952Z,92.57
2022-11-29T02:07:55.023Z,92.51
2022-11-29T02:10:41.892Z,92.37
2022-11-29T02:13:21.220Z,92.30
2022-11-29T02:15:59.558Z,92.28
2022-11-29T02:18:43.353Z,92.15
2022-11-29T02:21:30.473Z,91.95
2022-11-29T02:24:32.035Z,91.71
2022-11-29T02:27:30.519Z,91.69
2022-11-29T02:30:20.034Z,91.71
2022-11-29T02:33:37.720Z,91.71
2022-11-29T02:36:26.898Z,91.46
2022-11-29T02:39:26.241Z,91.62
2022-11-29T02:42:14.714Z,91.23
2022-11-29T02:45:07.225Z,91.46
2022-11-29T02:47:52.376Z,91.12
2022-11-29T02:50:37.645Z,91.00
2022-11-29T02:53:18.787Z,91.24
2022-11-29T02:56:00.035Z,90.90
2022-11-29T02:58:38.522Z,90.95
2022-11-29T03:01:17.935Z,90.87
2022-11-29T03:03:57.184Z,90.78
2022-11-29T03:06:37.879Z,90.49
2022-11-29T03:09:19.168Z,90.78
2022-11-29T03:11:55.326Z,90.44
2022-11-29T03:14:30.124Z,90.25
2022-11-29T03:17:10.945Z,90.35
2022-11-29T03:20:02.004Z,89.82
2022-11-29T03:22:46.386Z,90.08
2022-11-29T03:25:25.377Z,89.95
2022-11-29T03:28:03.202Z,89.92
2022-11-29T03:30:37.654Z,89.83
2022-11-29T03:33:16.168Z,90.09
2022-11-29T03:35:54.570Z,89.79
2022-11-29T03:38:31.545Z,89.88
2022-11-29T03:41:13.260Z,89.83
2022-11-29T03:43:48.790Z,90.04
2022-11-29T03:46:22.419Z,90.17
2022-11-29T03:48:57.787Z,90.14
2022-11-29T03:51:40.668Z,90.26
2022-11-29T03:54:13.836Z,89.97
2022-11-29T03:56:47.621Z,89.89
2022-11-29T03:59:39.164Z,89.90
2022-11-29T04:02:41.822Z,90.23
2022-11-29T04:05:28.370Z,90.12
2022-11-29T04:08:24.266Z,90.04
2022-11-29T04:11:36.398Z,89.77
2022-11-29T04:14:29.331Z,89.84
2022-11-29T04:17:36.998Z,89.74
2022-11-29T04:20:48.215Z,89.77
2022-11-29T04:23:56.591Z,89.62
2022-11-29T04:27:11.254Z,89.63
2022-11-29T04:30:04.321Z,89.43
2022-11-29T04:33:10.481Z,89.72
2022-11-29T04:36:08.158Z,89.73
2022-11-29T04:38:51.931Z,89.82
2022-11-29T04:41:44.243Z,89.53
2022-11-29T04:44:29.459Z,89.74
2022-11-29T04:47:18.967Z,89.65
2022-11-29T04:50:03.597Z,89.47
2022-11-29T04:52:51.566Z,89.65
2022-11-29T04:55:35.096Z,89.30
2022-11-29T04:58:16.286Z,89.58
2022-11-29T05:00:56.785Z,89.35
2022-11-29T05:03:38.876Z,89.43
2022-11-29T05:06:23.102Z,89.23
2022-11-29T05:09:04.558Z,88.57
2022-11-29T05:11:47.462Z,85.08
2022-11-29T05:14:28.610Z,81.25
2022-11-29T05:17:11.063Z,81.71
2022-11-29T05:19:58.623Z,81.24
2022-11-29T05:22:37.375Z,83.21
2022-11-29T05:25:29.099Z,85.47
2022-11-29T05:28:09.840Z,87.42
2022-11-29T05:30:58.047Z,89.00
2022-11-29T05:33:44.184Z,91.00
2022-11-29T05:36:27.596Z,91.54
2022-11-29T05:39:24.449Z,95.14
2022-11-29T05:42:09.691Z,98.56
2022-11-29T05:44:45.197Z,99.48
2022-11-29T05:47:23.746Z,95.86
2022-11-29T05:50:06.948Z,91.07
2022-11-29T05:52:52.600Z,89.23
2022-11-29T05:55:32.545Z,90.76
2022-11-29T05:58:07.176Z,91.32
2022-11-29T06:00:51.779Z,90.12
2022-11-29T06:03:27.838Z,92.06
2022-11-29T06:06:02.189Z,96.89
2022-11-29T06:08:42.866Z,97.08
2022-11-29T06:11:21.935Z,97.53
2022-11-29T06:14:05.846Z,97.69
2022-11-29T06:17:08.091Z,97.95
2022-11-29T06:20:13.310Z,97.58
2022-11-29T06:23:01.910Z,97.42
2022-11-29T06:25:48.673Z,97.21
2022-11-29T06:28:35.465Z,97.46
2022-11-29T06:31:15.138Z,96.91
2022-11-29T06:33:56.517Z,96.77
2022-11-29T06:36:33.020Z,96.54
2022-11-29T06:39:04.079Z,96.42
2022-11-29T06:41:37.981Z,95.90
2022-11-29T06:44:09.837Z,95.96
2022-11-29T06:46:48.685Z,95.79
2022-11-29T06:49:27.100Z,95.54
2022-11-29T06:52:11.459Z,94.88
2022-11-29T06:54:55.307Z,94.89
2022-11-29T06:57:40.453Z,94.69
2022-11-29T07:00:19.351Z,94.43
2022-11-29T07:03:22.672Z,93.93
2022-11-29T07:05:56.509Z,93.46
2022-11-29T07:08:27.804Z,93.08
2022-11-29T07:10:59.809Z,92.82
2022-11-29T07:13:33.786Z,92.88
2022-11-29T07:16:14.412Z,92.89
2022-11-29T07:18:54.376Z,92.32
2022-11-29T07:21:38.152Z,92.45
2022-11-29T07:24:20.399Z,92.14
2022-11-29T07:26:59.895Z,92.13
2022-11-29T07:29:43.186Z,92.08
2022-11-29T07:32:24.546Z,92.26
2022-11-29T07:35:06.150Z,92.52
2022-11-29T07:37:43.054Z,92.24
2022-11-29T07:40:19.461Z,91.83
2022-11-29T07:42:59.373Z,91.66
2022-11-29T07:45:36.368Z,91.38
2022-11-29T07:48:07.626Z,91.02
2022-11-29T07:50:39.264Z,90.52
2022-11-29T07:53:09.794Z,90.71
2022-11-29T07:55:40.392Z,90.67
2022-11-29T07:58:10.920Z,90.64
2022-11-29T08:00:45.013Z,91.01
2022-11-29T08:03:15.890Z,90.70
2022-11-29T08:05:49.335Z,90.54
2022-11-29T08:08:19.759Z,90.06
2022-11-29T08:10:50.490Z,90.14
2022-11-29T08:13:23.165Z,90.63
2022-11-29T08:15:56.253Z,90.54
2022-11-29T08:18:26.858Z,90.80
2022-11-29T08:20:57.462Z,90.92
2022-11-29T08:23:27.973Z,90.84
2022-11-29T08:26:02.737Z,91.18
2022-11-29T08:28:33.261Z,90.99
2022-11-29T08:31:08.913Z,91.00
2022-11-29T08:33:40.546Z,90.90
2022-11-29T08:36:13.238Z,90.36
2022-11-29T08:38:43.945Z,89.82
2022-11-29T08:41:17.037Z,89.82
2022-11-29T08:43:47.815Z,89.85
2022-11-29T08:46:21.084Z,89.89
2022-11-29T08:48:51.691Z,89.73
2022-11-29T08:51:22.272Z,89.83
2022-11-29T08:53:51.888Z,89.74
2022-11-29T08:59:13.291Z,90.02
2022-11-29T09:01:46.495Z,89.62
2022-11-29T09:04:17.877Z,89.91
2022-11-29T09:06:49.791Z,89.52
2022-11-29T09:09:20.679Z,89.06
2022-11-29T09:11:51.212Z,89.06
2022-11-29T09:14:23.122Z,89.09
2022-11-29T09:16:56.546Z,88.96
2022-11-29T09:19:27.071Z,88.95
2022-11-29T09:21:57.806Z,89.15
2022-11-29T09:24:28.303Z,89.21
2022-11-29T09:26:58.888Z,88.87
2022-11-29T09:29:29.449Z,88.87
2022-11-29T09:32:02.772Z,88.39
2022-11-29T09:34:33.418Z,88.21
2022-11-29T09:37:04.770Z,88.20
2022-11-29T09:39:38.443Z,88.12
2022-11-29T09:42:36.233Z,88.17
2022-11-29T09:45:11.349Z,88.38
2022-11-29T09:48:08.143Z,88.62
2022-11-29T09:50:43.218Z,88.34
2022-11-29T09:53:26.288Z,88.38
2022-11-29T09:56:05.135Z,88.25
2022-11-29T09:58:40.877Z,87.93
2022-11-29T10:01:16.198Z,87.80
2022-11-29T10:03:54.858Z,87.82
2022-11-29T10:06:29.333Z,88.00
2022-11-29T10:09:05.734Z,88.21
2022-11-29T10:11:40.294Z,88.43
2022-11-29T10:14:18.471Z,88.54
2022-11-29T10:16:54.481Z,88.13
2022-11-29T10:19:35.179Z,88.44
2022-11-29T10:22:09.667Z,87.87
2022-11-29T10:24:42.878Z,87.61
2022-11-29T10:27:18.415Z,87.35
2022-11-29T10:29:51.421Z,87.26
2022-11-29T10:32:23.864Z,87.98
2022-11-29T10:34:59.015Z,87.91
2022-11-29T10:37:32.809Z,87.96
2022-11-29T10:40:08.278Z,88.05
2022-11-29T10:42:55.441Z,87.76
2022-11-29T10:45:34.157Z,87.63
2022-11-29T10:48:09.248Z,87.46
2022-11-29T10:50:45.783Z,87.11
2022-11-29T10:53:18.475Z,87.13
2022-11-29T10:55:53.422Z,87.04
2022-11-29T10:58:28.692Z,87.18
2022-11-29T11:01:01.913Z,87.34
2022-11-29T11:03:38.085Z,87.75
2022-11-29T11:06:15.032Z,87.52
2022-11-29T11:08:47.026Z,87.42
2022-11-29T11:11:18.132Z,87.52
2022-11-29T11:14:01.109Z,87.55
2022-11-29T11:16:37.149Z,87.64
2022-11-29T11:19:30.372Z,87.57
2022-11-29T11:22:04.951Z,87.55
2022-11-29T11:24:37.486Z,87.46
2022-11-29T11:27:08.043Z,87.70
2022-11-29T11:29:40.614Z,87.98
2022-11-29T11:32:20.260Z,87.60
2022-11-29T11:34:55.095Z,87.80
2022-11-29T11:37:29.834Z,87.81
2022-11-29T11:40:03.153Z,87.84
2022-11-29T11:42:42.884Z,87.61
2022-11-29T11:45:30.406Z,87.41
2022-11-29T11:48:02.825Z,87.62
2022-11-29T11:50:36.846Z,87.71
2022-11-29T11:53:20.919Z,87.83
2022-11-29T11:56:00.985Z,87.75
2022-11-29T11:58:34.249Z,87.76
2022-11-29T12:01:19.212Z,87.92
2022-11-29T12:03:59.506Z,87.40
2022-11-29T12:06:34.815Z,87.27
2022-11-29T12:09:16.700Z,87.18
2022-11-29T12:11:56.266Z,87.33
2022-11-29T12:14:35.521Z,86.87
2022-11-29T12:17:22.821Z,86.79
2022-11-29T12:20:05.115Z,86.99
2022-11-29T12:22:48.313Z,87.30
2022-11-29T12:25:25.730Z,87.39
2022-11-29T12:27:56.495Z,87.20
2022-11-29T12:30:27.084Z,87.45
2022-11-29T12:33:15.585Z,87.28
2022-11-29T12:36:00.070Z,87.25
2022-11-29T12:38:56.011Z,86.75
2022-11-29T12:41:40.101Z,86.48
2022-11-29T12:44:24.314Z,86.45
2022-11-29T12:47:35.279Z,86.56
2022-11-29T12:50:07.993Z,86.75
2022-11-29T12:52:50.057Z,87.07
2022-11-29T12:55:27.640Z,87.33
2022-11-29T12:58:09.962Z,87.23
2022-11-29T13:00:48.970Z,87.01
2022-11-29T13:03:29.347Z,86.75
2022-11-29T13:06:14.111Z,87.04
2022-11-29T13:09:03.021Z,87.13
2022-11-29T13:11:37.560Z,87.27
2022-11-29T13:17:08.851Z,87.64
2022-11-29T13:19:45.810Z,87.47
2022-11-29T13:22:22.156Z,87.47
2022-11-29T13:24:58.006Z,87.23
2022-11-29T13:27:32.836Z,87.55
2022-11-29T13:30:06.545Z,87.20
2022-11-29T13:32:40.245Z,87.15
2022-11-29T13:35:21.733Z,87.37
2022-11-29T13:37:56.157Z,87.26
2022-11-29T13:40:38.207Z,87.46
2022-11-29T13:43:22.337Z,87.62
2022-11-29T13:46:03.179Z,87.57
2022-11-29T13:48:39.994Z,87.71
2022-11-29T13:51:30.314Z,88.23
2022-11-29T13:54:03.425Z,88.29
2022-11-29T13:56:43.493Z,87.84
2022-11-29T13:59:21.262Z,87.78
2022-11-29T14:01:58.538Z,87.97
2022-11-29T14:04:36.234Z,87.80
2022-11-29T14:07:10.256Z,88.04
2022-11-29T14:09:48.865Z,87.93
2022-11-29T14:12:43.244Z,88.25
2022-11-29T14:15:27.877Z,88.07
2022-11-29T14:18:03.078Z,88.44
2022-11-29T14:21:00.681Z,88.37
2022-11-29T14:23:46.902Z,88.32
2022-11-29T14:26:33.492Z,88.57
2022-11-29T14:29:03.978Z,88.60
2022-11-29T14:31:56.375Z,88.57
2022-11-29T14:34:44.318Z,88.35
2022-11-29T14:37:34.116Z,88.43
2022-11-29T14:40:14.442Z,88.41
2022-11-29T14:42:50.458Z,88.58
2022-11-29T14:45:31.172Z,88.31
2022-11-29T14:48:02.184Z,88.42
2022-11-29T14:50:41.118Z,88.39
2022-11-29T14:53:33.216Z,88.16
2022-11-29T14:56:35.132Z,88.24
2022-11-29T14:59:35.268Z,88.22
2022-11-29T15:02:09.995Z,88.43
2022-11-29T15:04:42.586Z,88.20
2022-11-29T15:07:21.421Z,88.54
2022-11-29T15:09:54.116Z,88.53
2022-11-29T15:12:29.268Z,88.27
2022-11-29T15:15:09.741Z,88.16
2022-11-29T15:17:51.670Z,88.14
2022-11-29T15:20:55.136Z,88.00
2022-11-29T15:23:28.505Z,88.52
2022-11-29T15:26:03.663Z,88.32
2022-11-29T15:28:34.153Z,88.52
2022-11-29T15:31:08.294Z,88.71
2022-11-29T15:33:43.652Z,88.66
2022-11-29T15:36:21.031Z,88.78
2022-11-29T15:38:57.432Z,88.43
2022-11-29T15:41:31.844Z,88.24
2022-11-29T15:44:03.635Z,88.18
2022-11-29T15:46:36.165Z,88.16
2022-11-29T15:49:21.172Z,88.73
2022-11-29T15:51:55.224Z,88.75
2022-11-29T15:54:34.222Z,88.45
2022-11-29T15:57:10.060Z,88.71
2022-11-29T15:59:44.228Z,88.89
2022-11-29T16:02:22.843Z,88.95
2022-11-29T16:04:56.946Z,88.91
2022-11-29T16:07:32.518Z,88.66
2022-11-29T16:10:13.260Z,88.57
2022-11-29T16:12:55.301Z,88.29
2022-11-29T16:15:32.181Z,88.75
2022-11-29T16:18:07.277Z,88.77
2022-11-29T16:20:37.944Z,88.71
2022-11-29T16:23:16.918Z,88.72
2022-11-29T16:26:01.863Z,88.97
2022-11-29T16:28:37.652Z,88.77
2022-11-29T16:31:08.310Z,89.09
2022-11-29T16:33:41.281Z,89.02
2022-11-29T16:36:18.084Z,88.84
2022-11-29T16:38:50.215Z,88.74
2022-11-29T16:41:35.236Z,88.84
2022-11-29T16:44:07.124Z,88.78
2022-11-29T16:46:42.183Z,88.84
2022-11-29T16:49:35.106Z,89.08
2022-11-29T16:52:25.742Z,89.37
2022-11-29T16:54:56.442Z,89.58
2022-11-29T16:57:30.423Z,89.47
2022-11-29T17:00:01.126Z,89.32
2022-11-29T17:02:32.890Z,89.27
2022-11-29T17:05:03.465Z,89.10
2022-11-29T17:07:36.981Z,89.13
2022-11-29T17:10:12.071Z,88.76
2022-11-29T17:12:48.188Z,89.00
2022-11-29T17:15:19.618Z,89.42
2022-11-29T17:17:50.196Z,89.21
2022-11-29T17:20:20.914Z,89.55
2022-11-29T17:22:51.437Z,89.61
2022-11-29T17:25:22.171Z,89.48
2022-11-29T17:27:55.315Z,89.28
2022-11-29T17:30:26.095Z,89.14
2022-11-29T17:32:59.620Z,89.27
2022-11-29T17:35:30.030Z,89.21
2022-11-29T17:38:02.032Z,89.05
2022-11-29T17:40:32.638Z,89.13
2022-11-29T17:43:05.753Z,89.40
2022-11-29T17:45:36.500Z,89.41
2022-11-29T17:48:07.512Z,89.38
2022-11-29T17:50:40.350Z,89.28
2022-11-29T17:53:10.978Z,89.45
2022-11-29T17:55:41.562Z,89.06
2022-11-29T17:58:16.291Z,89.13
2022-11-29T18:00:47.022Z,89.06
2022-11-29T18:03:17.598Z,89.24
2022-11-29T18:05:48.303Z,89.62
2022-11-29T18:08:18.793Z,89.60
2022-11-29T18:10:49.348Z,89.44
2022-11-29T18:13:22.447Z,89.42
2022-11-29T18:15:53.168Z,89.98
2022-11-29T18:18:23.567Z,89.71
2022-11-29T18:20:54.202Z,89.69
2022-11-29T18:23:24.759Z,89.67
2022-11-29T18:26:00.434Z,89.65
2022-11-29T18:28:33.598Z,89.64
2022-11-29T18:31:10.063Z,89.47
2022-11-29T18:33:40.557Z,89.76
2022-11-29T18:36:13.683Z,89.58
2022-11-29T18:38:45.534Z,89.69
2022-11-29T18:41:18.510Z,89.75
2022-11-29T18:43:52.566Z,89.93
2022-11-29T18:46:26.664Z,86.55
2022-11-29T18:48:57.235Z,84.16
2022-11-29T18:51:27.792Z,84.21
2022-11-29T18:53:59.129Z,84.67
2022-11-29T18:56:32.936Z,84.71
2022-11-29T18:59:08.743Z,83.16
2022-11-29T19:01:41.460Z,84.25
2022-11-29T19:04:13.972Z,85.47
2022-11-29T19:06:45.500Z,86.44
2022-11-29T19:09:17.581Z,87.44
2022-11-29T19:11:48.943Z,88.82
2022-11-29T19:14:22.985Z,91.69
2022-11-29T19:16:53.862Z,92.80
2022-11-29T19:19:24.405Z,96.93
2022-11-29T19:21:54.990Z,93.86
2022-11-29T19:24:25.448Z,88.50
2022-11-29T19:26:56.544Z,89.05
2022-11-29T19:29:29.697Z,91.14
2022-11-29T19:32:00.423Z,92.68
2022-11-29T19:34:30.955Z,93.17
2022-11-29T19:37:01.606Z,93.72
2022-11-29T19:39:34.191Z,93.37
2022-11-29T19:42:04.881Z,93.89
2022-11-29T19:45:08.722Z,94.21
2022-11-29T19:47:28.560Z,95.04
2022-11-29T19:50:02.329Z,95.77
2022-11-29T19:52:34.905Z,94.66
2022-11-29T19:55:05.866Z,97.43
2022-11-29T19:57:36.629Z,97.41
2022-11-29T20:00:13.523Z,98.15
2022-11-29T20:02:46.143Z,90.33
2022-11-29T20:05:16.824Z,89.64
2022-11-29T20:07:47.639Z,90.59
2022-11-29T20:10:20.615Z,92.25
2022-11-29T20:12:51.174Z,94.53
2022-11-29T20:15:24.333Z,95.94
2022-11-29T20:17:55.906Z,96.30
2022-11-29T20:20:26.487Z,97.37
2022-11-29T20:22:57.210Z,98.01
2022-11-29T20:25:28.063Z,98.07
2022-11-29T20:27:58.814Z,97.68
2022-11-29T20:30:32.033Z,96.15
2022-11-29T20:33:02.904Z,94.10
2022-11-29T20:35:33.921Z,97.23
2022-11-29T20:38:15.063Z,98.16
2022-11-29T20:41:02.756Z,98.16
2022-11-29T20:43:44.448Z,91.94
2022-11-29T20:46:18.313Z,90.60
2022-11-29T20:48:49.724Z,92.37
2022-11-29T20:51:20.963Z,94.05
2022-11-29T20:53:51.667Z,95.44
2022-11-29T20:56:22.627Z,96.53
2022-11-29T20:58:53.357Z,97.86
2022-11-29T21:01:26.615Z,99.50
2022-11-29T21:03:57.304Z,100.00
2022-11-29T21:06:28.165Z,99.59
2022-11-29T21:08:58.888Z,97.89
2022-11-29T21:11:30.265Z,95.38
2022-11-29T21:14:04.088Z,93.83
2022-11-29T21:16:37.936Z,93.28
2022-11-29T21:19:09.327Z,93.87
2022-11-29T21:21:45.824Z,97.65
2022-11-29T21:24:30.666Z,99.89
2022-11-29T21:27:01.547Z,98.08
2022-11-29T21:29:32.775Z,96.29
2022-11-29T21:32:06.587Z,98.85
2022-11-29T21:34:37.145Z,99.22
2022-11-29T21:37:07.989Z,99.22
2022-11-29T21:39:39.052Z,99.54
2022-11-29T21:42:09.589Z,99.63
2022-11-29T21:44:40.185Z,99.37
2022-11-29T21:47:13.385Z,99.65
2022-11-29T21:49:44.213Z,99.13
2022-11-29T21:52:20.691Z,99.55
2022-11-29T21:54:53.417Z,99.34
2022-11-29T21:57:24.046Z,99.18
2022-11-29T21:59:54.691Z,99.47
2022-11-29T22:02:27.843Z,99.26
2022-11-29T22:04:58.678Z,98.27
2022-11-29T22:07:29.217Z,97.68
2022-11-29T22:10:09.997Z,97.60
2022-11-29T22:12:51.903Z,95.13
2022-11-29T22:15:25.061Z,97.61
2022-11-29T22:17:59.211Z,99.09
2022-11-29T22:20:29.956Z,98.54
2022-11-29T22:23:00.496Z,97.94
2022-11-29T22:25:31.029Z,98.24
2022-11-29T22:28:01.511Z,99.64
2022-11-29T22:30:32.145Z,100.00
2022-11-29T22:33:10.318Z,99.06
2022-11-29T22:35:46.295Z,98.16
2022-11-29T22:38:16.779Z,98.46
2022-11-29T22:40:47.537Z,99.00
2022-11-29T22:43:18.045Z,98.69
2022-11-29T22:45:48.602Z,98.90
2022-11-29T22:48:21.653Z,99.01
2022-11-29T22:50:52.312Z,98.92
2022-11-29T22:53:22.911Z,99.19
2022-11-29T22:55:53.559Z,99.28
2022-11-29T22:58:24.277Z,99.55
2022-11-29T23:00:55.343Z,99.65
2022-11-29T23:03:28.556Z,99.75
2022-11-29T23:06:05.027Z,99.53
2022-11-29T23:08:35.750Z,99.58
2022-11-29T23:11:07.415Z,99.65
2022-11-29T23:13:39.866Z,100.00
2022-11-29T23:16:12.560Z,93.55
2022-11-29T23:18:46.549Z,90.93
2022-11-29T23:21:19.734Z,92.00
2022-11-29T23:23:56.111Z,93.41
2022-11-29T23:26:29.617Z,94.65
2022-11-29T23:29:01.376Z,94.40
2022-11-29T23:31:32.037Z,94.07
2022-11-29T23:34:05.684Z,94.87
2022-11-29T23:36:36.501Z,93.37
2022-11-29T23:39:08.340Z,98.08
2022-11-29T23:41:39.679Z,98.88
2022-11-29T23:44:11.281Z,100.00
2022-11-29T23:46:42.042Z,97.80
2022-11-29T23:49:15.203Z,91.67
2022-11-29T23:51:45.747Z,92.08
2022-11-29T23:54:16.325Z,93.17
2022-11-29T23:56:46.869Z,94.93
2022-11-29T23:59:17.733Z,95.13
